sensor_id;sensor_type;location;lat;lon;timestamp;P1;durP1;ratioP1;P2;durP2;ratioP2
56824;SDS011;42705;50.326;18.772;2023-10-08T00:01:43;0.90;;;0.10;;
56824;SDS011;42705;50.326;18.772;2023-10-08T00:07:05;0.30;;;0.00;;
56824;SDS011;42705;50.326;18.772;2023-10-08T00:12:30;0.20;;;0.10;;
56824;SDS011;42705;50.326;18.772;2023-10-08T00:17:51;0.30;;;0.10;;
56824;SDS011;42705;50.326;18.772;2023-10-08T00:23:16;0.60;;;0.10;;
56824;SDS011;42705;50.326;18.772;2023-10-08T00:28:38;0.20;;;0.10;;
56824;SDS011;42705;50.326;18.772;2023-10-08T00:34:04;0.10;;;0.10;;
56824;SDS011;42705;50.326;18.772;2023-10-08T00:39:26;0.00;;;0.00;;
56824;SDS011;42705;50.326;18.772;2023-10-08T00:44:55;0.00;;;0.00;;
56824;SDS011;42705;50.326;18.772;2023-10-08T00:50:17;1.10;;;0.10;;
56824;SDS011;42705;50.326;18.772;2023-10-08T00:55:42;0.70;;;0.10;;
56824;SDS011;42705;50.326;18.772;2023-10-08T01:01:12;0.10;;;0.10;;
56824;SDS011;42705;50.326;18.772;2023-10-08T01:06:37;0.10;;;0.10;;
56824;SDS011;42705;50.326;18.772;2023-10-08T01:12:07;0.60;;;0.10;;
56824;SDS011;42705;50.326;18.772;2023-10-08T01:17:49;0.60;;;0.30;;
56824;SDS011;42705;50.326;18.772;2023-10-08T01:23:21;0.30;;;0.20;;
56824;SDS011;42705;50.326;18.772;2023-10-08T01:28:48;0.00;;;0.00;;
56824;SDS011;42705;50.326;18.772;2023-10-08T01:34:09;1.30;;;0.30;;
56824;SDS011;42705;50.326;18.772;2023-10-08T01:39:37;1.50;;;0.20;;
56824;SDS011;42705;50.326;18.772;2023-10-08T01:45:01;1.00;;;0.10;;
56824;SDS011;42705;50.326;18.772;2023-10-08T01:50:23;0.30;;;0.10;;
56824;SDS011;42705;50.326;18.772;2023-10-08T01:55:49;1.20;;;0.20;;
56824;SDS011;42705;50.326;18.772;2023-10-08T02:01:10;0.10;;;0.10;;
56824;SDS011;42705;50.326;18.772;2023-10-08T02:11:55;0.60;;;0.10;;
56824;SDS011;42705;50.326;18.772;2023-10-08T02:17:18;0.80;;;0.30;;
56824;SDS011;42705;50.326;18.772;2023-10-08T02:22:40;2.70;;;0.20;;
56824;SDS011;42705;50.326;18.772;2023-10-08T02:28:02;0.00;;;0.00;;
56824;SDS011;42705;50.326;18.772;2023-10-08T02:33:25;0.30;;;0.10;;
56824;SDS011;42705;50.326;18.772;2023-10-08T02:38:48;0.10;;;0.10;;
56824;SDS011;42705;50.326;18.772;2023-10-08T02:49:35;0.20;;;0.10;;
56824;SDS011;42705;50.326;18.772;2023-10-08T02:54:57;0.70;;;0.10;;
56824;SDS011;42705;50.326;18.772;2023-10-08T03:00:21;0.20;;;0.10;;
56824;SDS011;42705;50.326;18.772;2023-10-08T03:05:51;0.40;;;0.30;;
56824;SDS011;42705;50.326;18.772;2023-10-08T03:11:13;0.60;;;0.20;;
56824;SDS011;42705;50.326;18.772;2023-10-08T03:16:38;0.60;;;0.10;;
56824;SDS011;42705;50.326;18.772;2023-10-08T03:22:02;0.60;;;0.20;;
56824;SDS011;42705;50.326;18.772;2023-10-08T03:27:26;0.70;;;0.20;;
56824;SDS011;42705;50.326;18.772;2023-10-08T03:32:47;1.20;;;0.40;;
56824;SDS011;42705;50.326;18.772;2023-10-08T03:38:19;0.90;;;0.30;;
56824;SDS011;42705;50.326;18.772;2023-10-08T03:43:49;1.30;;;0.50;;
56824;SDS011;42705;50.326;18.772;2023-10-08T03:49:14;1.00;;;0.30;;
56824;SDS011;42705;50.326;18.772;2023-10-08T03:54:42;1.90;;;0.20;;
56824;SDS011;42705;50.326;18.772;2023-10-08T04:00:13;0.30;;;0.10;;
56824;SDS011;42705;50.326;18.772;2023-10-08T04:05:37;1.40;;;0.40;;
56824;SDS011;42705;50.326;18.772;2023-10-08T04:11:18;0.80;;;0.40;;
56824;SDS011;42705;50.326;18.772;2023-10-08T04:16:53;2.30;;;0.20;;
56824;SDS011;42705;50.326;18.772;2023-10-08T04:22:15;1.20;;;0.40;;
56824;SDS011;42705;50.326;18.772;2023-10-08T04:27:39;3.30;;;0.30;;
56824;SDS011;42705;50.326;18.772;2023-10-08T04:33:04;3.80;;;0.60;;
56824;SDS011;42705;50.326;18.772;2023-10-08T04:38:32;2.00;;;0.40;;
56824;SDS011;42705;50.326;18.772;2023-10-08T04:44:01;2.00;;;0.40;;
56824;SDS011;42705;50.326;18.772;2023-10-08T04:49:29;2.90;;;0.60;;
56824;SDS011;42705;50.326;18.772;2023-10-08T04:54:53;2.80;;;0.60;;
56824;SDS011;42705;50.326;18.772;2023-10-08T05:00:18;2.70;;;0.70;;
56824;SDS011;42705;50.326;18.772;2023-10-08T05:05:59;2.20;;;0.50;;
56824;SDS011;42705;50.326;18.772;2023-10-08T05:11:27;3.10;;;0.40;;
56824;SDS011;42705;50.326;18.772;2023-10-08T05:17:07;0.70;;;0.40;;
56824;SDS011;42705;50.326;18.772;2023-10-08T05:22:32;2.00;;;0.80;;
56824;SDS011;42705;50.326;18.772;2023-10-08T05:27:54;1.00;;;0.30;;
56824;SDS011;42705;50.326;18.772;2023-10-08T05:33:19;0.70;;;0.30;;
56824;SDS011;42705;50.326;18.772;2023-10-08T05:38:49;2.40;;;0.50;;
56824;SDS011;42705;50.326;18.772;2023-10-08T05:44:20;3.00;;;0.40;;
56824;SDS011;42705;50.326;18.772;2023-10-08T05:49:42;1.30;;;0.20;;
56824;SDS011;42705;50.326;18.772;2023-10-08T05:55:15;1.10;;;0.60;;
56824;SDS011;42705;50.326;18.772;2023-10-08T06:00:47;2.00;;;0.30;;
56824;SDS011;42705;50.326;18.772;2023-10-08T06:06:12;1.00;;;0.30;;
56824;SDS011;42705;50.326;18.772;2023-10-08T06:11:34;3.00;;;0.40;;
56824;SDS011;42705;50.326;18.772;2023-10-08T06:17:02;1.40;;;0.40;;
56824;SDS011;42705;50.326;18.772;2023-10-08T06:22:43;1.70;;;0.50;;
56824;SDS011;42705;50.326;18.772;2023-10-08T06:28:05;1.90;;;0.40;;
56824;SDS011;42705;50.326;18.772;2023-10-08T06:33:30;2.20;;;0.50;;
56824;SDS011;42705;50.326;18.772;2023-10-08T06:38:51;1.30;;;0.50;;
56824;SDS011;42705;50.326;18.772;2023-10-08T06:44:13;2.00;;;0.70;;
56824;SDS011;42705;50.326;18.772;2023-10-08T06:49:38;1.10;;;0.40;;
56824;SDS011;42705;50.326;18.772;2023-10-08T06:55:00;3.20;;;0.90;;
56824;SDS011;42705;50.326;18.772;2023-10-08T07:00:24;2.00;;;0.50;;
56824;SDS011;42705;50.326;18.772;2023-10-08T07:06:08;1.80;;;0.90;;
56824;SDS011;42705;50.326;18.772;2023-10-08T07:11:52;4.30;;;1.30;;
56824;SDS011;42705;50.326;18.772;2023-10-08T07:17:17;5.10;;;1.10;;
56824;SDS011;42705;50.326;18.772;2023-10-08T07:22:41;3.00;;;1.00;;
56824;SDS011;42705;50.326;18.772;2023-10-08T07:28:04;2.20;;;1.20;;
56824;SDS011;42705;50.326;18.772;2023-10-08T07:33:27;3.70;;;1.30;;
56824;SDS011;42705;50.326;18.772;2023-10-08T07:38:57;1.90;;;1.10;;
56824;SDS011;42705;50.326;18.772;2023-10-08T07:44:20;2.10;;;1.20;;
56824;SDS011;42705;50.326;18.772;2023-10-08T07:49:42;4.30;;;1.20;;
56824;SDS011;42705;50.326;18.772;2023-10-08T07:55:05;3.10;;;1.30;;
56824;SDS011;42705;50.326;18.772;2023-10-08T08:00:27;2.20;;;1.00;;
56824;SDS011;42705;50.326;18.772;2023-10-08T08:05:52;3.20;;;1.50;;
56824;SDS011;42705;50.326;18.772;2023-10-08T08:11:14;4.90;;;1.70;;
56824;SDS011;42705;50.326;18.772;2023-10-08T08:16:38;3.90;;;1.60;;
56824;SDS011;42705;50.326;18.772;2023-10-08T08:22:00;2.70;;;1.40;;
56824;SDS011;42705;50.326;18.772;2023-10-08T08:27:24;3.00;;;1.60;;
56824;SDS011;42705;50.326;18.772;2023-10-08T08:32:46;4.00;;;1.40;;
56824;SDS011;42705;50.326;18.772;2023-10-08T08:38:10;3.30;;;1.30;;
56824;SDS011;42705;50.326;18.772;2023-10-08T08:48:55;2.50;;;1.20;;
56824;SDS011;42705;50.326;18.772;2023-10-08T08:54:21;1.60;;;0.90;;
56824;SDS011;42705;50.326;18.772;2023-10-08T08:59:55;1.60;;;1.10;;
56824;SDS011;42705;50.326;18.772;2023-10-08T09:05:19;1.40;;;0.80;;
56824;SDS011;42705;50.326;18.772;2023-10-08T09:10:46;2.80;;;1.10;;
56824;SDS011;42705;50.326;18.772;2023-10-08T09:16:15;2.70;;;1.00;;
56824;SDS011;42705;50.326;18.772;2023-10-08T09:21:38;1.80;;;1.20;;
56824;SDS011;42705;50.326;18.772;2023-10-08T09:27:00;4.70;;;1.90;;
56824;SDS011;42705;50.326;18.772;2023-10-08T09:32:23;1.30;;;1.00;;
56824;SDS011;42705;50.326;18.772;2023-10-08T09:37:45;2.00;;;0.80;;
56824;SDS011;42705;50.326;18.772;2023-10-08T09:43:11;1.40;;;0.70;;
56824;SDS011;42705;50.326;18.772;2023-10-08T09:48:34;1.30;;;0.80;;
56824;SDS011;42705;50.326;18.772;2023-10-08T09:54:10;1.70;;;1.00;;
56824;SDS011;42705;50.326;18.772;2023-10-08T09:59:36;2.70;;;0.80;;
56824;SDS011;42705;50.326;18.772;2023-10-08T10:05:02;4.10;;;0.70;;
56824;SDS011;42705;50.326;18.772;2023-10-08T10:10:33;1.10;;;0.60;;
56824;SDS011;42705;50.326;18.772;2023-10-08T10:15:56;0.70;;;0.40;;
56824;SDS011;42705;50.326;18.772;2023-10-08T10:21:24;0.70;;;0.40;;
56824;SDS011;42705;50.326;18.772;2023-10-08T10:26:47;0.70;;;0.50;;
56824;SDS011;42705;50.326;18.772;2023-10-08T10:32:12;1.00;;;0.50;;
56824;SDS011;42705;50.326;18.772;2023-10-08T10:37:37;2.10;;;0.30;;
56824;SDS011;42705;50.326;18.772;2023-10-08T10:43:12;3.30;;;0.60;;
56824;SDS011;42705;50.326;18.772;2023-10-08T10:48:37;1.00;;;0.40;;
56824;SDS011;42705;50.326;18.772;2023-10-08T10:54:00;4.70;;;2.00;;
56824;SDS011;42705;50.326;18.772;2023-10-08T10:59:29;2.10;;;0.50;;
56824;SDS011;42705;50.326;18.772;2023-10-08T11:04:58;0.80;;;0.50;;
56824;SDS011;42705;50.326;18.772;2023-10-08T11:10:36;1.30;;;0.50;;
56824;SDS011;42705;50.326;18.772;2023-10-08T11:16:09;2.70;;;0.70;;
56824;SDS011;42705;50.326;18.772;2023-10-08T11:21:30;2.10;;;0.70;;
56824;SDS011;42705;50.326;18.772;2023-10-08T11:26:55;1.90;;;0.40;;
56824;SDS011;42705;50.326;18.772;2023-10-08T11:32:37;2.10;;;0.20;;
56824;SDS011;42705;50.326;18.772;2023-10-08T11:38:00;0.60;;;0.30;;
56824;SDS011;42705;50.326;18.772;2023-10-08T11:43:24;0.90;;;0.40;;
56824;SDS011;42705;50.326;18.772;2023-10-08T11:48:46;1.60;;;0.40;;
56824;SDS011;42705;50.326;18.772;2023-10-08T11:54:08;0.90;;;0.40;;
56824;SDS011;42705;50.326;18.772;2023-10-08T11:59:33;1.20;;;0.40;;
56824;SDS011;42705;50.326;18.772;2023-10-08T12:05:00;0.90;;;0.40;;
56824;SDS011;42705;50.326;18.772;2023-10-08T12:10:24;0.80;;;0.30;;
56824;SDS011;42705;50.326;18.772;2023-10-08T12:15:45;3.50;;;0.50;;
56824;SDS011;42705;50.326;18.772;2023-10-08T12:21:08;1.30;;;0.50;;
56824;SDS011;42705;50.326;18.772;2023-10-08T12:26:31;0.70;;;0.40;;
56824;SDS011;42705;50.326;18.772;2023-10-08T12:31:53;1.40;;;0.70;;
56824;SDS011;42705;50.326;18.772;2023-10-08T12:37:15;1.50;;;0.60;;
56824;SDS011;42705;50.326;18.772;2023-10-08T12:42:37;1.80;;;0.40;;
56824;SDS011;42705;50.326;18.772;2023-10-08T12:48:05;1.70;;;0.50;;
56824;SDS011;42705;50.326;18.772;2023-10-08T12:53:29;1.10;;;0.80;;
56824;SDS011;42705;50.326;18.772;2023-10-08T12:59:00;1.90;;;0.50;;
56824;SDS011;42705;50.326;18.772;2023-10-08T13:04:25;1.90;;;0.80;;
56824;SDS011;42705;50.326;18.772;2023-10-08T13:09:52;1.10;;;0.90;;
56824;SDS011;42705;50.326;18.772;2023-10-08T13:15:14;0.60;;;0.50;;
56824;SDS011;42705;50.326;18.772;2023-10-08T13:20:35;0.60;;;0.50;;
56824;SDS011;42705;50.326;18.772;2023-10-08T13:25:57;1.50;;;1.20;;
56824;SDS011;42705;50.326;18.772;2023-10-08T13:31:25;2.70;;;0.70;;
56824;SDS011;42705;50.326;18.772;2023-10-08T13:36:48;1.70;;;0.40;;
56824;SDS011;42705;50.326;18.772;2023-10-08T13:42:10;1.40;;;0.60;;
56824;SDS011;42705;50.326;18.772;2023-10-08T13:47:38;0.70;;;0.70;;
56824;SDS011;42705;50.326;18.772;2023-10-08T13:53:01;2.10;;;0.60;;
56824;SDS011;42705;50.326;18.772;2023-10-08T13:58:23;0.50;;;0.50;;
56824;SDS011;42705;50.326;18.772;2023-10-08T14:03:46;1.20;;;0.80;;
56824;SDS011;42705;50.326;18.772;2023-10-08T14:09:08;1.80;;;0.70;;
56824;SDS011;42705;50.326;18.772;2023-10-08T14:14:33;1.90;;;0.60;;
56824;SDS011;42705;50.326;18.772;2023-10-08T14:19:55;0.70;;;0.50;;
56824;SDS011;42705;50.326;18.772;2023-10-08T14:25:28;0.70;;;0.50;;
56824;SDS011;42705;50.326;18.772;2023-10-08T14:30:54;1.60;;;0.50;;
56824;SDS011;42705;50.326;18.772;2023-10-08T14:36:17;1.40;;;0.60;;
56824;SDS011;42705;50.326;18.772;2023-10-08T14:41:58;0.60;;;0.50;;
56824;SDS011;42705;50.326;18.772;2023-10-08T14:47:39;0.60;;;0.50;;
56824;SDS011;42705;50.326;18.772;2023-10-08T14:53:01;1.30;;;0.60;;
56824;SDS011;42705;50.326;18.772;2023-10-08T14:58:27;0.70;;;0.40;;
56824;SDS011;42705;50.326;18.772;2023-10-08T15:03:49;1.20;;;0.50;;
56824;SDS011;42705;50.326;18.772;2023-10-08T15:09:11;1.80;;;0.70;;
56824;SDS011;42705;50.326;18.772;2023-10-08T15:14:39;0.70;;;0.50;;
56824;SDS011;42705;50.326;18.772;2023-10-08T15:20:03;1.60;;;0.40;;
56824;SDS011;42705;50.326;18.772;2023-10-08T15:25:28;1.10;;;0.50;;
56824;SDS011;42705;50.326;18.772;2023-10-08T15:30:50;2.10;;;0.60;;
56824;SDS011;42705;50.326;18.772;2023-10-08T15:36:11;3.00;;;0.80;;
56824;SDS011;42705;50.326;18.772;2023-10-08T15:41:36;0.70;;;0.50;;
56824;SDS011;42705;50.326;18.772;2023-10-08T15:47:00;1.60;;;0.90;;
56824;SDS011;42705;50.326;18.772;2023-10-08T15:52:21;2.80;;;1.50;;
56824;SDS011;42705;50.326;18.772;2023-10-08T15:57:46;1.30;;;1.00;;
56824;SDS011;42705;50.326;18.772;2023-10-08T16:03:07;1.10;;;1.00;;
56824;SDS011;42705;50.326;18.772;2023-10-08T16:08:30;2.40;;;1.40;;
56824;SDS011;42705;50.326;18.772;2023-10-08T16:13:51;4.90;;;2.00;;
56824;SDS011;42705;50.326;18.772;2023-10-08T16:19:13;5.10;;;2.70;;
56824;SDS011;42705;50.326;18.772;2023-10-08T16:24:37;3.10;;;1.90;;
56824;SDS011;42705;50.326;18.772;2023-10-08T16:29:59;3.30;;;1.80;;
56824;SDS011;42705;50.326;18.772;2023-10-08T16:35:21;4.60;;;2.10;;
56824;SDS011;42705;50.326;18.772;2023-10-08T16:40:46;2.30;;;1.30;;
56824;SDS011;42705;50.326;18.772;2023-10-08T16:46:07;2.00;;;1.20;;
56824;SDS011;42705;50.326;18.772;2023-10-08T16:51:29;3.00;;;1.20;;
56824;SDS011;42705;50.326;18.772;2023-10-08T16:56:51;3.10;;;1.50;;
56824;SDS011;42705;50.326;18.772;2023-10-08T17:02:12;2.80;;;1.30;;
56824;SDS011;42705;50.326;18.772;2023-10-08T17:07:34;4.40;;;1.40;;
56824;SDS011;42705;50.326;18.772;2023-10-08T17:12:58;3.40;;;1.30;;
56824;SDS011;42705;50.326;18.772;2023-10-08T17:18:20;3.70;;;1.40;;
56824;SDS011;42705;50.326;18.772;2023-10-08T17:23:41;2.70;;;1.50;;
56824;SDS011;42705;50.326;18.772;2023-10-08T17:29:03;2.60;;;1.30;;
56824;SDS011;42705;50.326;18.772;2023-10-08T17:34:29;2.60;;;1.30;;
56824;SDS011;42705;50.326;18.772;2023-10-08T17:39:52;3.50;;;1.40;;
56824;SDS011;42705;50.326;18.772;2023-10-08T17:45:14;3.00;;;1.30;;
56824;SDS011;42705;50.326;18.772;2023-10-08T17:50:35;3.30;;;1.20;;
56824;SDS011;42705;50.326;18.772;2023-10-08T17:56:00;3.80;;;1.40;;
56824;SDS011;42705;50.326;18.772;2023-10-08T18:01:22;2.50;;;1.00;;
56824;SDS011;42705;50.326;18.772;2023-10-08T18:06:43;4.00;;;1.80;;
56824;SDS011;42705;50.326;18.772;2023-10-08T18:12:05;3.30;;;1.50;;
56824;SDS011;42705;50.326;18.772;2023-10-08T18:17:31;2.50;;;1.40;;
56824;SDS011;42705;50.326;18.772;2023-10-08T18:22:56;3.20;;;1.50;;
56824;SDS011;42705;50.326;18.772;2023-10-08T18:28:18;4.60;;;1.60;;
56824;SDS011;42705;50.326;18.772;2023-10-08T18:33:40;3.80;;;2.20;;
56824;SDS011;42705;50.326;18.772;2023-10-08T18:39:04;3.90;;;1.70;;
56824;SDS011;42705;50.326;18.772;2023-10-08T18:44:34;4.30;;;1.60;;
56824;SDS011;42705;50.326;18.772;2023-10-08T18:49:56;3.70;;;1.70;;
56824;SDS011;42705;50.326;18.772;2023-10-08T18:55:20;4.40;;;1.80;;
56824;SDS011;42705;50.326;18.772;2023-10-08T19:00:42;3.70;;;1.40;;
56824;SDS011;42705;50.326;18.772;2023-10-08T19:06:05;2.70;;;1.60;;
56824;SDS011;42705;50.326;18.772;2023-10-08T19:11:28;6.00;;;3.20;;
56824;SDS011;42705;50.326;18.772;2023-10-08T19:16:54;4.40;;;2.80;;
56824;SDS011;42705;50.326;18.772;2023-10-08T19:22:16;6.30;;;3.60;;
56824;SDS011;42705;50.326;18.772;2023-10-08T19:27:38;6.80;;;4.10;;
56824;SDS011;42705;50.326;18.772;2023-10-08T19:32:59;8.80;;;4.40;;
56824;SDS011;42705;50.326;18.772;2023-10-08T19:38:23;10.40;;;4.90;;
56824;SDS011;42705;50.326;18.772;2023-10-08T19:43:45;7.90;;;4.10;;
56824;SDS011;42705;50.326;18.772;2023-10-08T19:49:07;7.90;;;4.70;;
56824;SDS011;42705;50.326;18.772;2023-10-08T19:54:28;9.20;;;5.10;;
56824;SDS011;42705;50.326;18.772;2023-10-08T19:59:51;10.60;;;4.70;;
56824;SDS011;42705;50.326;18.772;2023-10-08T20:05:12;10.50;;;5.40;;
56824;SDS011;42705;50.326;18.772;2023-10-08T20:10:37;9.60;;;4.70;;
56824;SDS011;42705;50.326;18.772;2023-10-08T20:16:01;9.30;;;4.90;;
56824;SDS011;42705;50.326;18.772;2023-10-08T20:21:28;10.40;;;5.30;;
56824;SDS011;42705;50.326;18.772;2023-10-08T20:26:49;12.70;;;5.70;;
56824;SDS011;42705;50.326;18.772;2023-10-08T20:32:11;11.80;;;5.10;;
56824;SDS011;42705;50.326;18.772;2023-10-08T20:37:35;9.60;;;4.50;;
56824;SDS011;42705;50.326;18.772;2023-10-08T20:42:57;8.30;;;4.70;;
56824;SDS011;42705;50.326;18.772;2023-10-08T20:48:20;7.50;;;3.70;;
56824;SDS011;42705;50.326;18.772;2023-10-08T20:53:43;6.40;;;3.10;;
56824;SDS011;42705;50.326;18.772;2023-10-08T20:59:06;7.30;;;3.90;;
56824;SDS011;42705;50.326;18.772;2023-10-08T21:04:27;4.90;;;2.90;;
56824;SDS011;42705;50.326;18.772;2023-10-08T21:09:49;7.20;;;3.60;;
56824;SDS011;42705;50.326;18.772;2023-10-08T21:15:12;10.30;;;4.20;;
56824;SDS011;42705;50.326;18.772;2023-10-08T21:20:41;7.00;;;3.10;;
56824;SDS011;42705;50.326;18.772;2023-10-08T21:26:04;11.10;;;4.20;;
56824;SDS011;42705;50.326;18.772;2023-10-08T21:31:26;12.40;;;4.40;;
56824;SDS011;42705;50.326;18.772;2023-10-08T21:36:49;12.10;;;5.80;;
56824;SDS011;42705;50.326;18.772;2023-10-08T21:42:11;11.70;;;5.20;;
56824;SDS011;42705;50.326;18.772;2023-10-08T21:47:34;11.00;;;5.50;;
56824;SDS011;42705;50.326;18.772;2023-10-08T21:52:56;9.90;;;5.30;;
56824;SDS011;42705;50.326;18.772;2023-10-08T21:58:18;11.90;;;6.20;;
56824;SDS011;42705;50.326;18.772;2023-10-08T22:03:40;9.10;;;4.80;;
56824;SDS011;42705;50.326;18.772;2023-10-08T22:09:04;10.60;;;6.50;;
56824;SDS011;42705;50.326;18.772;2023-10-08T22:14:32;11.20;;;5.30;;
56824;SDS011;42705;50.326;18.772;2023-10-08T22:19:54;12.50;;;5.70;;
56824;SDS011;42705;50.326;18.772;2023-10-08T22:25:17;14.20;;;7.20;;
56824;SDS011;42705;50.326;18.772;2023-10-08T22:30:41;14.00;;;6.70;;
56824;SDS011;42705;50.326;18.772;2023-10-08T22:36:03;12.90;;;6.90;;
56824;SDS011;42705;50.326;18.772;2023-10-08T22:41:25;15.00;;;8.20;;
56824;SDS011;42705;50.326;18.772;2023-10-08T22:47:05;18.10;;;9.40;;
56824;SDS011;42705;50.326;18.772;2023-10-08T22:52:29;17.70;;;8.50;;
56824;SDS011;42705;50.326;18.772;2023-10-08T23:03:15;14.50;;;8.80;;
56824;SDS011;42705;50.326;18.772;2023-10-08T23:08:45;15.10;;;8.30;;
56824;SDS011;42705;50.326;18.772;2023-10-08T23:14:08;17.60;;;8.80;;
56824;SDS011;42705;50.326;18.772;2023-10-08T23:19:30;14.70;;;7.50;;
56824;SDS011;42705;50.326;18.772;2023-10-08T23:24:52;15.90;;;7.50;;
56824;SDS011;42705;50.326;18.772;2023-10-08T23:30:14;18.00;;;7.90;;
56824;SDS011;42705;50.326;18.772;2023-10-08T23:35:35;16.60;;;8.00;;
56824;SDS011;42705;50.326;18.772;2023-10-08T23:41:03;16.90;;;8.80;;
56824;SDS011;42705;50.326;18.772;2023-10-08T23:46:36;19.00;;;9.00;;
56824;SDS011;42705;50.326;18.772;2023-10-08T23:52:05;16.70;;;9.20;;
56824;SDS011;42705;50.326;18.772;2023-10-08T23:57:30;20.40;;;9.80;;
